Station Historical Data
Daily Summary for May 21, 2012 Units:  English    Metric   Both
« Previous Day
Next Day »
Daily Weekly Monthly Yearly Custom
  High: Low: Average:
Temperature: 79.3 °F 59.9 °F 69.8 °F
Dew Point: 67.5 °F 58.2 °F 62.9 °F
Humidity: 94% 55% 80%
Wind Speed: 34.0mph 0.0mph 3.2mph
Wind Gust: 34.0mph - -
Wind- - SW
Pressure: 30.04 in 29.90 in -
Precipitation: 1.04 in    
Historical Graphs
 
 
Tabular Data for May 21, 2012
Time Temperature Dew Point Pressure Wind Wind Speed Wind Gust Humidity Rainfall Rate (Hourly) Conditions
00:00 68.4 °F 64.7 °F 30.01 in ENE 1.0 mph 1.0 mph 88% 0.00 in
00:01 68.5 °F 64.8 °F 30.01 in East 1.0 mph 1.0 mph 88% 0.00 in
00:06 68.9 °F 64.9 °F 30.01 in Calm   1.0 mph 87% 0.00 in
00:11 69.2 °F 64.8 °F 30.01 in Calm   1.0 mph 86% 0.00 in
00:16 69.0 °F 64.3 °F 30.01 in East 1.0 mph 1.0 mph 85% 0.00 in
00:21 69.5 °F 64.5 °F 30.01 in Calm   1.0 mph 84% 0.00 in
00:26 69.4 °F 64.4 °F 30.00 in ESE 1.0 mph 1.0 mph 84% 0.00 in
00:31 69.1 °F 64.1 °F 30.00 in ESE 1.0 mph 2.0 mph 84% 0.00 in
00:36 69.4 °F 64.0 °F 30.01 in ESE 1.0 mph 2.0 mph 83% 0.00 in
00:41 69.6 °F 64.2 °F 30.01 in Calm   1.0 mph 83% 0.00 in
00:46 69.4 °F 64.0 °F 30.01 in Calm     83% 0.00 in
00:51 67.8 °F 63.5 °F 30.01 in Calm   2.0 mph 86% 0.00 in
00:56 67.2 °F 63.8 °F 30.01 in Calm     89% 0.00 in
01:01 67.0 °F 64.0 °F 30.01 in Calm     90% 0.00 in
01:06 66.8 °F 63.8 °F 30.01 in Calm     90% 0.00 in
01:12 66.5 °F 63.5 °F 30.01 in Calm     90% 0.00 in
01:17 66.4 °F 63.7 °F 30.01 in Calm   1.0 mph 91% 0.00 in
01:18 66.4 °F 63.7 °F 30.01 in Calm     91% 0.00 in
01:23 66.1 °F 63.4 °F 30.01 in NW 10.0 mph 10.0 mph 91% 0.00 in
01:28 66.9 °F 63.6 °F 30.01 in WNW 4.0 mph 10.0 mph 89% 0.00 in
01:33 67.8 °F 63.8 °F 30.02 in NNW 3.0 mph 5.0 mph 87% 0.00 in
01:38 68.5 °F 63.8 °F 30.02 in NW 8.0 mph 13.0 mph 85% 0.00 in
01:43 69.0 °F 64.0 °F 30.03 in NW 12.0 mph 15.0 mph 84% 0.00 in
01:48 69.3 °F 63.6 °F 30.03 in NNW 8.0 mph 13.0 mph 82% 0.00 in
01:53 69.3 °F 63.2 °F 30.03 in WNW 6.0 mph 12.0 mph 81% 0.00 in
01:58 69.3 °F 62.9 °F 30.03 in WNW 10.0 mph 10.0 mph 80% 0.00 in
02:03 69.1 °F 63.0 °F 30.03 in NNW 8.0 mph 9.0 mph 81% 0.00 in
02:08 68.8 °F 63.1 °F 30.03 in NNW 6.0 mph 10.0 mph 82% 0.00 in
02:13 68.5 °F 62.8 °F 30.03 in WNW 7.0 mph 7.0 mph 82% 0.00 in
02:14 68.5 °F 63.1 °F 30.03 in NW 4.0 mph 7.0 mph 83% 0.00 in
02:19 68.2 °F 63.2 °F 30.03 in NW 5.0 mph 6.0 mph 84% 0.00 in
02:24 67.9 °F 62.2 °F 30.03 in NNW 5.0 mph 11.0 mph 82% 0.00 in
02:29 67.3 °F 62.3 °F 30.04 in NW 4.0 mph 8.0 mph 84% 0.00 in
02:34 66.8 °F 62.2 °F 30.03 in NW 4.0 mph 6.0 mph 85% 0.00 in
02:40 66.4 °F 62.1 °F 30.03 in WNW 5.0 mph 6.0 mph 86% 0.00 in
02:45 65.7 °F 61.7 °F 30.02 in NW 4.0 mph 9.0 mph 87% 0.00 in
02:50 65.4 °F 61.8 °F 30.02 in NW 5.0 mph 6.0 mph 88% 0.00 in
02:55 65.2 °F 61.6 °F 30.02 in NNW 7.0 mph 9.0 mph 88% 0.00 in
03:00 65.1 °F 61.5 °F 30.01 in North 3.0 mph 8.0 mph 88% 0.00 in
03:05 65.1 °F 61.5 °F 30.01 in NNW 5.0 mph 8.0 mph 88% 0.00 in
03:10 65.0 °F 61.4 °F 30.00 in North 6.0 mph 7.0 mph 88% 0.00 in
03:15 64.9 °F 61.6 °F 30.00 in NNW 3.0 mph 7.0 mph 89% 0.00 in
03:20 64.7 °F 61.4 °F 29.99 in NE 4.0 mph 11.0 mph 89% 0.00 in
03:25 64.5 °F 61.2 °F 29.99 in NNW 6.0 mph 11.0 mph 89% 0.00 in
03:30 64.2 °F 61.2 °F 30.00 in SE 1.0 mph 4.0 mph 90% 0.00 in
03:35 64.0 °F 61.3 °F 30.00 in NNE 2.0 mph 3.0 mph 91% 0.00 in
03:40 63.8 °F 61.1 °F 30.00 in NNW 2.0 mph 5.0 mph 91% 0.00 in
03:46 63.8 °F 61.1 °F 30.00 in NW 4.0 mph 5.0 mph 91% 0.00 in
03:51 63.7 °F 61.0 °F 30.00 in NNW 1.0 mph 4.0 mph 91% 0.00 in
03:56 63.6 °F 60.9 °F 30.00 in North 1.0 mph 4.0 mph 91% 0.00 in
04:01 63.4 °F 60.7 °F 29.99 in North 2.0 mph 3.0 mph 91% 0.00 in
04:06 63.3 °F 60.9 °F 29.99 in NNW 1.0 mph 3.0 mph 92% 0.00 in
04:11 63.2 °F 60.8 °F 29.99 in NW 2.0 mph 3.0 mph 92% 0.00 in
04:16 63.1 °F 60.7 °F 29.99 in NE 1.0 mph 2.0 mph 92% 0.00 in
04:21 63.0 °F 60.6 °F 29.99 in NE 3.0 mph 3.0 mph 92% 0.00 in
04:26 63.0 °F 60.6 °F 29.99 in Calm   1.0 mph 92% 0.00 in
04:31 62.9 °F 60.5 °F 29.98 in Calm   1.0 mph 92% 0.00 in
04:36 63.0 °F 60.6 °F 29.98 in Calm   1.0 mph 92% 0.00 in
04:41 63.0 °F 60.6 °F 29.98 in East 1.0 mph 1.0 mph 92% 0.00 in
04:46 63.1 °F 60.7 °F 29.98 in NNE 1.0 mph 3.0 mph 92% 0.00 in
04:51 63.2 °F 60.8 °F 29.97 in NE 1.0 mph 1.0 mph 92% 0.00 in
04:56 63.3 °F 60.9 °F 29.97 in NE 1.0 mph 1.0 mph 92% 0.00 in
05:01 63.3 °F 60.9 °F 29.98 in NE 1.0 mph 2.0 mph 92% 0.00 in
05:06 63.3 °F 60.6 °F 29.97 in Calm   1.0 mph 91% 0.00 in
05:11 63.3 °F 60.6 °F 29.97 in Calm   1.0 mph 91% 0.00 in
05:16 63.3 °F 60.6 °F 29.97 in Calm     91% 0.00 in
05:21 63.2 °F 60.8 °F 29.98 in Calm     92% 0.00 in
05:26 63.2 °F 60.8 °F 29.98 in West 2.0 mph 2.0 mph 92% 0.00 in
05:31 63.1 °F 60.7 °F 29.98 in West 1.0 mph 2.0 mph 92% 0.00 in
05:37 63.0 °F 61.0 °F 29.98 in SW 1.0 mph 3.0 mph 93% 0.00 in
05:41 62.9 °F 60.8 °F 29.98 in WSW 3.0 mph 4.0 mph 93% 0.00 in
05:47 62.8 °F 60.8 °F 29.98 in SW 2.0 mph 5.0 mph 93% 0.00 in
05:52 62.7 °F 60.7 °F 29.98 in SE 1.0 mph 3.0 mph 93% 0.00 in
05:57 62.6 °F 60.5 °F 29.98 in SW 4.0 mph 4.0 mph 93% 0.00 in
06:02 62.5 °F 60.5 °F 29.99 in SW 7.0 mph 7.0 mph 93% 0.00 in
06:07 62.4 °F 60.3 °F 29.99 in WSW 2.0 mph 5.0 mph 93% 0.00 in
06:12 62.4 °F 60.7 °F 30.00 in WNW 2.0 mph 4.0 mph 94% 0.00 in
06:17 62.4 °F 60.7 °F 30.00 in WNW 1.0 mph 3.0 mph 94% 0.00 in
06:18 62.4 °F 60.7 °F 30.00 in NW 1.0 mph 3.0 mph 94% 0.00 in
06:23 62.3 °F 60.6 °F 29.99 in Calm   2.0 mph 94% 0.00 in
06:28 62.2 °F 60.5 °F 30.00 in West 1.0 mph 1.0 mph 94% 0.00 in
06:33 62.2 °F 60.5 °F 30.00 in Calm     94% 0.00 in
06:38 62.2 °F 60.5 °F 30.00 in Calm     94% 0.00 in
06:43 62.2 °F 60.5 °F 30.01 in Calm     94% 0.00 in
06:48 62.2 °F 60.5 °F 30.01 in Calm     94% 0.00 in
06:53 62.2 °F 60.5 °F 30.01 in NE 2.0 mph 4.0 mph 94% 0.00 in
06:58 62.3 °F 60.6 °F 30.01 in NE 2.0 mph 4.0 mph 94% 0.00 in
07:03 62.4 °F 60.7 °F 30.02 in Calm   3.0 mph 94% 0.00 in
07:08 62.5 °F 60.8 °F 30.02 in East 3.0 mph 4.0 mph 94% 0.00 in
07:13 62.6 °F 60.8 °F 30.01 in Calm   4.0 mph 94% 0.00 in
07:18 62.6 °F 60.8 °F 30.02 in Calm   1.0 mph 94% 0.00 in
07:23 62.6 °F 60.8 °F 30.01 in ESE 3.0 mph 3.0 mph 94% 0.00 in
07:28 62.7 °F 61.0 °F 30.01 in NNE 3.0 mph 3.0 mph 94% 0.00 in
07:33 62.8 °F 61.0 °F 30.01 in ENE 2.0 mph 2.0 mph 94% 0.00 in
07:38 62.9 °F 61.2 °F 30.01 in NNW 1.0 mph 2.0 mph 94% 0.00 in
07:43 62.9 °F 61.2 °F 30.02 in North 2.0 mph 2.0 mph 94% 0.00 in
07:48 63.0 °F 61.0 °F 30.02 in NNW 1.0 mph 2.0 mph 93% 0.00 in
07:53 63.0 °F 61.0 °F 30.02 in NE 1.0 mph 3.0 mph 93% 0.00 in
07:58 63.0 °F 61.0 °F 30.02 in Calm   2.0 mph 93% 0.00 in
08:04 63.1 °F 61.0 °F 30.02 in Calm   1.0 mph 93% 0.00 in
08:09 63.2 °F 61.2 °F 30.02 in Calm     93% 0.00 in
08:14 63.4 °F 61.3 °F 30.02 in NE 2.0 mph 3.0 mph 93% 0.00 in
08:19 63.5 °F 61.4 °F 30.02 in NNW 1.0 mph 3.0 mph 93% 0.00 in
08:24 63.6 °F 61.5 °F 30.03 in Calm   1.0 mph 93% 0.00 in
08:29 63.7 °F 61.6 °F 30.04 in SW 4.0 mph 5.0 mph 93% 0.00 in
08:34 63.8 °F 61.7 °F 30.04 in West 2.0 mph 5.0 mph 93% 0.00 in
08:39 63.8 °F 61.7 °F 30.04 in WSW 1.0 mph 4.0 mph 93% 0.00 in
08:44 63.8 °F 61.7 °F 30.04 in West 1.0 mph 2.0 mph 93% 0.00 in
08:49 63.7 °F 61.6 °F 30.04 in West 2.0 mph 2.0 mph 93% 0.00 in
08:54 63.8 °F 61.7 °F 30.04 in WSW 3.0 mph 3.0 mph 93% 0.00 in
08:59 63.9 °F 61.8 °F 30.04 in West 1.0 mph 1.0 mph 93% 0.00 in
09:04 64.0 °F 61.9 °F 30.04 in Calm   1.0 mph 93% 0.00 in
09:09 64.2 °F 62.1 °F 30.04 in WSW 1.0 mph 1.0 mph 93% 0.00 in
09:14 64.5 °F 62.4 °F 30.04 in WNW 2.0 mph 2.0 mph 93% 0.00 in
09:19 64.6 °F 62.5 °F 30.04 in WSW 1.0 mph 2.0 mph 93% 0.00 in
09:24 64.9 °F 62.8 °F 30.04 in Calm   2.0 mph 93% 0.00 in
09:29 65.3 °F 62.9 °F 30.04 in Calm   2.0 mph 92% 0.00 in
09:34 65.8 °F 63.4 °F 30.04 in Calm     92% 0.00 in
09:39 66.6 °F 64.2 °F 30.03 in Calm   1.0 mph 92% 0.00 in
09:44 67.1 °F 64.1 °F 30.03 in West 1.0 mph 1.0 mph 90% 0.00 in
09:49 68.1 °F 64.7 °F 30.04 in Calm   2.0 mph 89% 0.00 in
09:54 69.3 °F 65.6 °F 30.03 in Calm   1.0 mph 88% 0.00 in
09:55 69.4 °F 65.7 °F 30.04 in Calm   1.0 mph 88% 0.00 in
10:00 70.1 °F 65.7 °F 30.03 in NNW 1.0 mph 2.0 mph 86% 0.00 in
10:05 70.3 °F 64.9 °F 30.03 in NE 1.0 mph 1.0 mph 83% 0.00 in
10:10 70.6 °F 63.4 °F 30.03 in Calm   3.0 mph 78% 0.00 in
10:15 70.9 °F 63.0 °F 30.03 in Calm   3.0 mph 76% 0.00 in
10:20 71.1 °F 63.2 °F 30.02 in NNW 1.0 mph 4.0 mph 76% 0.00 in
10:25 71.3 °F 63.0 °F 30.02 in NNE 1.0 mph 3.0 mph 75% 0.00 in
10:30 71.8 °F 63.8 °F 30.02 in North 2.0 mph 2.0 mph 76% 0.00 in
10:35 71.5 °F 62.8 °F 30.02 in WNW 3.0 mph 3.0 mph 74% 0.00 in
10:40 71.5 °F 63.2 °F 30.02 in West 1.0 mph 2.0 mph 75% 0.00 in
10:45 71.8 °F 64.2 °F 30.02 in Calm   4.0 mph 77% 0.00 in
10:51 72.4 °F 64.4 °F 30.02 in WNW 2.0 mph 5.0 mph 76% 0.00 in
10:56 72.5 °F 63.4 °F 30.02 in NW 3.0 mph 6.0 mph 73% 0.00 in
11:01 73.0 °F 63.8 °F 30.02 in NE 2.0 mph 4.0 mph 73% 0.00 in
11:06 73.1 °F 64.3 °F 30.02 in NNW 3.0 mph 5.0 mph 74% 0.00 in
11:11 73.3 °F 64.1 °F 30.02 in NNE 4.0 mph 5.0 mph 73% 0.00 in
11:16 73.6 °F 64.0 °F 30.02 in North 4.0 mph 4.0 mph 72% 0.00 in
11:21 73.9 °F 64.3 °F 30.02 in WNW 3.0 mph 3.0 mph 72% 0.00 in
11:26 74.4 °F 63.6 °F 30.02 in NW 1.0 mph 4.0 mph 69% 0.00 in
11:31 74.8 °F 64.4 °F 30.02 in WNW 3.0 mph 5.0 mph 70% 0.00 in
11:36 74.6 °F 63.3 °F 30.02 in WNW 2.0 mph 5.0 mph 68% 0.00 in
11:41 74.9 °F 62.8 °F 30.02 in WNW 5.0 mph 6.0 mph 66% 0.00 in
11:46 74.7 °F 61.3 °F 30.02 in WNW 3.0 mph 6.0 mph 63% 0.00 in
11:51 75.6 °F 63.0 °F 30.02 in NNW 1.0 mph 4.0 mph 65% 0.00 in
11:56 76.1 °F 63.0 °F 30.02 in West 2.0 mph 6.0 mph 64% 0.00 in
12:01 75.9 °F 60.1 °F 30.02 in WNW 5.0 mph 5.0 mph 58% 0.00 in
12:06 75.9 °F 60.6 °F 30.01 in SW 2.0 mph 4.0 mph 59% 0.00 in
12:11 75.7 °F 60.4 °F 30.02 in Calm   6.0 mph 59% 0.00 in
12:16 75.7 °F 62.2 °F 30.02 in NW 2.0 mph 4.0 mph 63% 0.00 in
12:21 75.9 °F 61.0 °F 30.02 in NE 1.0 mph 5.0 mph 60% 0.00 in
12:26 76.4 °F 62.9 °F 30.01 in WNW 4.0 mph 5.0 mph 63% 0.00 in
12:31 76.9 °F 63.8 °F 30.01 in NW 2.0 mph 8.0 mph 64% 0.00 in
12:36 76.9 °F 62.0 °F 30.01 in WSW 5.0 mph 5.0 mph 60% 0.00 in
12:41 76.5 °F 61.1 °F 30.01 in NNW 4.0 mph 6.0 mph 59% 0.00 in
12:46 76.3 °F 60.9 °F 30.01 in West 1.0 mph 5.0 mph 59% 0.00 in
12:51 76.4 °F 61.5 °F 30.01 in WSW 1.0 mph 5.0 mph 60% 0.00 in
12:56 77.0 °F 62.5 °F 30.01 in NW 4.0 mph 6.0 mph 61% 0.00 in
13:01 77.6 °F 61.7 °F 30.01 in Calm   3.0 mph 58% 0.00 in
13:06 77.9 °F 60.5 °F 30.01 in West 8.0 mph 9.0 mph 55% 0.00 in
13:11 77.3 °F 61.4 °F 30.00 in WNW 3.0 mph 8.0 mph 58% 0.00 in
13:16 77.4 °F 61.5 °F 30.00 in NW 4.0 mph 5.0 mph 58% 0.00 in
13:21 77.3 °F 62.8 °F 30.00 in SW 5.0 mph 6.0 mph 61% 0.00 in
13:26 77.6 °F 63.6 °F 30.00 in WNW 3.0 mph 5.0 mph 62% 0.00 in
13:31 77.8 °F 64.7 °F 29.99 in WNW 7.0 mph 7.0 mph 64% 0.00 in
13:36 78.1 °F 64.9 °F 30.00 in North 7.0 mph 8.0 mph 64% 0.00 in
13:41 78.1 °F 64.9 °F 29.99 in NNW 6.0 mph 8.0 mph 64% 0.00 in
13:47 77.5 °F 64.8 °F 29.99 in WNW 5.0 mph 7.0 mph 65% 0.00 in
13:52 77.7 °F 62.7 °F 29.99 in West 7.0 mph 9.0 mph 60% 0.00 in
13:57 77.7 °F 64.1 °F 29.99 in WNW 5.0 mph 9.0 mph 63% 0.00 in
14:02 77.7 °F 63.2 °F 29.99 in WNW 4.0 mph 9.0 mph 61% 0.00 in
14:07 77.6 °F 64.0 °F 29.99 in WNW 4.0 mph 7.0 mph 63% 0.00 in
14:12 77.9 °F 64.8 °F 29.99 in WSW 7.0 mph 8.0 mph 64% 0.00 in
14:17 78.3 °F 63.3 °F 29.98 in West 2.0 mph 8.0 mph 60% 0.00 in
14:22 78.1 °F 63.6 °F 29.98 in WNW 7.0 mph 9.0 mph 61% 0.00 in
14:27 77.7 °F 63.7 °F 29.98 in WNW 7.0 mph 8.0 mph 62% 0.00 in
14:32 78.3 °F 62.8 °F 29.98 in WNW 4.0 mph 9.0 mph 59% 0.00 in
14:37 78.5 °F 63.5 °F 29.98 in West 4.0 mph 9.0 mph 60% 0.00 in
14:42 78.7 °F 63.7 °F 29.97 in WSW 4.0 mph 8.0 mph 60% 0.00 in
14:47 78.6 °F 64.5 °F 29.97 in WNW 5.0 mph 9.0 mph 62% 0.00 in
14:52 78.4 °F 64.8 °F 29.97 in WNW 3.0 mph 7.0 mph 63% 0.00 in
14:57 78.8 °F 64.2 °F 29.97 in WNW 6.0 mph 9.0 mph 61% 0.00 in
15:02 78.5 °F 64.0 °F 29.97 in NW 5.0 mph 12.0 mph 61% 0.00 in
15:07 78.5 °F 64.0 °F 29.96 in WNW 7.0 mph 10.0 mph 61% 0.00 in
15:12 79.0 °F 65.3 °F 29.96 in SW 9.0 mph 9.0 mph 63% 0.00 in
15:17 79.3 °F 63.7 °F 29.96 in WSW 7.0 mph 15.0 mph 59% 0.00 in
15:22 78.9 °F 63.8 °F 29.96 in West 7.0 mph 11.0 mph 60% 0.00 in
15:27 78.7 °F 63.2 °F 29.95 in NW 10.0 mph 10.0 mph 59% 0.00 in
15:32 78.3 °F 64.7 °F 29.95 in West 6.0 mph 8.0 mph 63% 0.00 in
15:38 78.5 °F 64.4 °F 29.95 in West 4.0 mph 7.0 mph 62% 0.00 in
15:43 78.9 °F 64.3 °F 29.95 in West 5.0 mph 11.0 mph 61% 0.00 in
15:48 78.4 °F 63.8 °F 29.95 in West 5.0 mph 9.0 mph 61% 0.00 in
15:53 79.2 °F 64.6 °F 29.94 in West 4.0 mph 8.0 mph 61% 0.00 in
15:58 78.9 °F 64.8 °F 29.94 in WSW 5.0 mph 10.0 mph 62% 0.00 in
16:03 79.0 °F 65.3 °F 29.94 in WSW 4.0 mph 11.0 mph 63% 0.00 in
16:08 78.8 °F 63.3 °F 29.94 in WNW 5.0 mph 7.0 mph 59% 0.00 in
16:13 78.7 °F 63.7 °F 29.93 in WNW 8.0 mph 8.0 mph 60% 0.00 in
16:18 78.8 °F 63.8 °F 29.94 in NW 5.0 mph 9.0 mph 60% 0.00 in
16:23 78.6 °F 63.6 °F 29.93 in WNW 5.0 mph 7.0 mph 60% 0.00 in
16:28 78.2 °F 63.7 °F 29.93 in WNW 7.0 mph 7.0 mph 61% 0.00 in
16:33 78.5 °F 64.9 °F 29.93 in West 9.0 mph 9.0 mph 63% 0.00 in
16:39 78.5 °F 64.0 °F 29.93 in WSW 5.0 mph 10.0 mph 61% 0.00 in
16:44 78.6 °F 64.0 °F 29.93 in West 5.0 mph 9.0 mph 61% 0.00 in
16:49 78.6 °F 64.0 °F 29.92 in WSW 5.0 mph 9.0 mph 61% 0.00 in
16:54 78.4 °F 63.4 °F 29.92 in SW 4.0 mph 8.0 mph 60% 0.00 in
16:58 78.6 °F 64.5 °F 29.92 in WSW 9.0 mph 9.0 mph 62% 0.00 in
16:59 78.6 °F 64.0 °F 29.92 in SW 7.0 mph 9.0 mph 61% 0.00 in
17:04 78.5 °F 64.0 °F 29.92 in West 3.0 mph 8.0 mph 61% 0.00 in
17:10 78.7 °F 65.5 °F 29.92 in WNW 3.0 mph 7.0 mph 64% 0.00 in
17:13 78.8 °F 63.8 °F 29.93 in WNW 6.0 mph 9.0 mph 60% 0.00 in
17:14 78.8 °F 63.8 °F 29.93 in WNW 4.0 mph 9.0 mph 60% 0.00 in
17:15 78.7 °F 64.1 °F 29.93 in West 4.0 mph 9.0 mph 61% 0.00 in
17:20 78.5 °F 64.9 °F 29.93 in West 2.0 mph 9.0 mph 63% 0.00 in
17:25 78.6 °F 64.5 °F 29.92 in West 7.0 mph 9.0 mph 62% 0.00 in
17:30 78.7 °F 66.0 °F 29.92 in West 5.0 mph 8.0 mph 65% 0.00 in
17:35 78.6 °F 64.5 °F 29.92 in WSW 3.0 mph 6.0 mph 62% 0.00 in
17:41 78.5 °F 65.8 °F 29.92 in West 3.0 mph 9.0 mph 65% 0.00 in
17:46 78.3 °F 65.1 °F 29.92 in WNW 7.0 mph 8.0 mph 64% 0.00 in
17:51 77.7 °F 64.6 °F 29.91 in West 3.0 mph 7.0 mph 64% 0.00 in
17:56 77.4 °F 65.2 °F 29.91 in NW 4.0 mph 7.0 mph 66% 0.00 in
18:01 77.3 °F 65.5 °F 29.91 in West 1.0 mph 5.0 mph 67% 0.00 in
18:06 77.1 °F 66.2 °F 29.91 in WSW 2.0 mph 4.0 mph 69% 0.00 in
18:11 77.1 °F 65.7 °F 29.91 in West 2.0 mph 5.0 mph 68% 0.00 in
18:16 77.3 °F 65.5 °F 29.90 in NW 5.0 mph 7.0 mph 67% 0.00 in
18:21 77.4 °F 66.0 °F 29.90 in NW 6.0 mph 6.0 mph 68% 0.00 in
18:26 77.5 °F 66.9 °F 29.90 in WNW 4.0 mph 7.0 mph 70% 0.00 in
18:31 77.2 °F 66.2 °F 29.90 in WNW 4.0 mph 8.0 mph 69% 0.00 in
18:36 76.8 °F 66.7 °F 29.90 in WSW 6.0 mph 7.0 mph 71% 0.00 in
18:41 76.5 °F 66.4 °F 29.90 in WNW 7.0 mph 11.0 mph 71% 0.00 in
18:46 76.1 °F 66.0 °F 29.90 in WNW 5.0 mph 10.0 mph 71% 0.00 in
18:51 76.0 °F 66.3 °F 29.91 in West 4.0 mph 8.0 mph 72% 0.00 in
18:56 76.0 °F 66.7 °F 29.90 in SE 1.0 mph 5.0 mph 73% 0.00 in
19:01 75.9 °F 66.6 °F 29.90 in NW 4.0 mph 6.0 mph 73% 0.00 in
19:06 75.7 °F 66.8 °F 29.90 in West 3.0 mph 5.0 mph 74% 0.00 in
19:11 75.5 °F 67.0 °F 29.90 in WNW 2.0 mph 4.0 mph 75% 0.00 in
19:16 75.4 °F 67.3 °F 29.90 in West 3.0 mph 3.0 mph 76% 0.00 in
19:22 75.3 °F 67.2 °F 29.90 in WNW 2.0 mph 2.0 mph 76% 0.00 in
19:27 75.2 °F 67.1 °F 29.90 in SW 1.0 mph 4.0 mph 76% 0.00 in
19:32 75.2 °F 67.1 °F 29.90 in West 2.0 mph 5.0 mph 76% 0.00 in
19:37 75.3 °F 67.2 °F 29.90 in WNW 3.0 mph 5.0 mph 76% 0.00 in
19:42 75.3 °F 67.2 °F 29.90 in West 3.0 mph 3.0 mph 76% 0.00 in
19:47 75.4 °F 67.3 °F 29.90 in West 1.0 mph 3.0 mph 76% 0.00 in
19:52 75.3 °F 66.8 °F 29.90 in West 2.0 mph 3.0 mph 75% 0.00 in
19:57 75.1 °F 67.0 °F 29.90 in West 1.0 mph 3.0 mph 76% 0.00 in
20:02 74.9 °F 66.8 °F 29.90 in West 1.0 mph 3.0 mph 76% 0.00 in
20:07 74.7 °F 67.0 °F 29.90 in Calm   2.0 mph 77% 0.00 in
20:12 74.8 °F 67.1 °F 29.91 in WNW 1.0 mph 1.0 mph 77% 0.00 in
20:17 74.7 °F 67.0 °F 29.91 in Calm   1.0 mph 77% 0.00 in
20:22 74.4 °F 67.1 °F 29.91 in Calm   1.0 mph 78% 0.00 in
20:27 74.2 °F 66.9 °F 29.91 in WSW 1.0 mph 2.0 mph 78% 0.00 in
20:32 74.0 °F 67.4 °F 29.90 in SW 1.0 mph 1.0 mph 80% 0.00 in
20:37 73.7 °F 67.5 °F 29.90 in SSW 1.0 mph 1.0 mph 81% 0.00 in
20:42 73.3 °F 67.1 °F 29.91 in South 1.0 mph 1.0 mph 81% 0.00 in
20:47 73.0 °F 67.2 °F 29.90 in SSE 2.0 mph 3.0 mph 82% 0.00 in
20:52 72.6 °F 67.2 °F 29.91 in WNW 9.0 mph 9.0 mph 83% 0.00 in
20:57 70.3 °F 64.9 °F 29.90 in North 34.0 mph 34.0 mph 83% 0.00 in
21:03 66.2 °F 62.5 °F 29.93 in North 11.0 mph 16.0 mph 88% 2.68 in
21:08 65.0 °F 62.6 °F 29.92 in NNW 5.0 mph 10.0 mph 92% 0.50 in
21:13 64.8 °F 62.7 °F 29.92 in NE 7.0 mph 9.0 mph 93% 0.14 in
21:18 64.6 °F 62.5 °F 29.92 in NNE 4.0 mph 9.0 mph 93% 0.35 in
21:23 64.5 °F 62.4 °F 29.94 in NNE 6.0 mph 11.0 mph 93% 2.55 in
21:28 63.7 °F 61.6 °F 29.93 in East 9.0 mph 16.0 mph 93% 2.76 in
21:33 63.9 °F 61.8 °F 29.93 in East 3.0 mph 9.0 mph 93% 0.80 in
21:38 64.2 °F 62.1 °F 29.94 in ESE 2.0 mph 5.0 mph 93% 0.26 in
21:43 64.3 °F 62.2 °F 29.94 in East 1.0 mph 5.0 mph 93% 0.11 in
21:48 64.4 °F 62.6 °F 29.95 in NNE 3.0 mph 4.0 mph 94% 0.14 in
21:53 64.5 °F 62.7 °F 29.97 in North 7.0 mph 7.0 mph 94% 0.08 in
21:58 64.0 °F 62.2 °F 29.98 in NNE 13.0 mph 21.0 mph 94% 0.05 in
22:03 61.6 °F 59.3 °F 29.97 in NE 17.0 mph 22.0 mph 92% 0.00 in
22:08 61.1 °F 59.4 °F 29.97 in NNE 14.0 mph 15.0 mph 94% 0.93 in
22:13 61.2 °F 59.5 °F 29.95 in NE 6.0 mph 14.0 mph 94% 0.64 in
22:18 61.4 °F 59.7 °F 29.95 in NE 4.0 mph 6.0 mph 94% 0.51 in
22:23 61.2 °F 59.5 °F 29.94 in NE 9.0 mph 14.0 mph 94% 0.15 in
22:28 60.9 °F 59.2 °F 29.95 in East 3.0 mph 8.0 mph 94% 0.12 in
22:33 60.6 °F 58.9 °F 29.94 in East 2.0 mph 5.0 mph 94% 0.11 in
22:38 60.5 °F 58.8 °F 29.94 in SE 2.0 mph 4.0 mph 94% 0.07 in
22:43 60.5 °F 58.8 °F 29.95 in SE 8.0 mph 8.0 mph 94% 0.04 in
22:49 60.6 °F 58.9 °F 29.95 in SE 5.0 mph 7.0 mph 94% 0.00 in
22:54 60.6 °F 58.9 °F 29.95 in ESE 6.0 mph 8.0 mph 94% 0.00 in
22:59 60.6 °F 58.9 °F 29.94 in SE 1.0 mph 5.0 mph 94% 0.00 in
23:04 60.6 °F 58.9 °F 29.94 in Calm     94% 0.00 in
23:09 60.5 °F 58.8 °F 29.95 in NW 1.0 mph 2.0 mph 94% 0.00 in
23:14 60.4 °F 58.7 °F 29.95 in NNW 2.0 mph 3.0 mph 94% 0.00 in
23:19 60.3 °F 58.6 °F 29.95 in NNW 4.0 mph 4.0 mph 94% 0.00 in
23:24 60.3 °F 58.6 °F 29.95 in NNE 4.0 mph 6.0 mph 94% 0.00 in
23:29 60.1 °F 58.4 °F 29.95 in NW 4.0 mph 6.0 mph 94% 0.00 in
23:34 60.0 °F 58.3 °F 29.96 in North 2.0 mph 4.0 mph 94% 0.00 in
23:39 60.0 °F 58.3 °F 29.96 in Calm   4.0 mph 94% 0.00 in
23:44 59.9 °F 58.2 °F 29.96 in WSW 1.0 mph 2.0 mph 94% 0.00 in
23:49 59.9 °F 58.2 °F 29.95 in Calm   2.0 mph 94% 0.00 in
23:54 59.9 °F 58.2 °F 29.95 in West 1.0 mph 1.0 mph 94% 0.00 in
23:59 60.0 °F 58.3 °F 29.96 in SW 2.0 mph 3.0 mph 94% 0.00 in
Compliments of Weather Underground